createdAt,value
2023-04-29T00:02:40.835Z,100573.59
2023-04-29T00:05:42.531Z,100562.59
2023-04-29T00:08:44.770Z,100548.56
2023-04-29T00:11:46.584Z,100563.16
2023-04-29T00:14:48.068Z,100561.50
2023-04-29T00:17:50.212Z,100573.59
2023-04-29T00:20:51.589Z,100567.84
2023-04-29T00:23:53.763Z,100561.22
2023-04-29T00:26:55.037Z,100563.16
2023-04-29T00:29:56.758Z,100567.81
2023-04-29T00:32:58.053Z,100560.09
2023-04-29T00:35:59.548Z,100568.94
2023-04-29T00:39:02.554Z,100568.41
2023-04-29T00:42:04.178Z,100564.00
2023-04-29T00:45:08.173Z,100555.44
2023-04-29T00:48:09.834Z,100551.31
2023-04-29T00:51:11.540Z,100550.47
2023-04-29T00:54:13.663Z,100537.84
2023-04-29T00:57:15.090Z,100538.13
2023-04-29T01:00:16.932Z,100546.09
2023-04-29T01:03:19.326Z,100548.00
2023-04-29T01:06:29.602Z,100558.72
2023-04-29T01:09:47.075Z,100565.34
2023-04-29T01:12:59.871Z,100566.16
2023-04-29T01:16:03.350Z,100576.06
2023-04-29T01:19:16.904Z,100573.28
2023-04-29T01:22:19.531Z,100562.56
2023-04-29T01:25:21.849Z,100536.44
2023-04-29T01:28:37.992Z,100532.59
2023-04-29T01:31:48.944Z,100538.09
2023-04-29T01:35:04.375Z,100540.00
2023-04-29T01:38:18.155Z,100532.28
2023-04-29T01:41:28.197Z,100536.41
2023-04-29T01:44:31.664Z,100531.44
2023-04-29T01:47:33.714Z,100527.06
2023-04-29T01:50:35.034Z,100538.03
2023-04-29T01:53:36.483Z,100540.50
2023-04-29T01:56:38.554Z,100533.59
2023-04-29T01:59:40.169Z,100542.94
2023-04-29T02:02:41.675Z,100542.97
2023-04-29T02:05:43.210Z,100540.50
2023-04-29T02:08:44.491Z,100533.63
2023-04-29T02:11:46.630Z,100530.84
2023-04-29T02:14:51.977Z,100527.53
2023-04-29T02:17:53.828Z,100521.22
2023-04-29T02:21:00.373Z,100526.41
2023-04-29T02:24:01.810Z,100531.44
2023-04-29T02:27:05.292Z,100524.25
2023-04-29T02:30:07.680Z,100528.38
2023-04-29T02:33:09.250Z,100517.94
2023-04-29T02:36:10.690Z,100527.00
2023-04-29T02:39:12.096Z,100519.31
2023-04-29T02:42:14.149Z,100514.06
2023-04-29T02:45:15.873Z,100523.44
2023-04-29T02:48:17.490Z,100518.19
2023-04-29T02:51:19.174Z,100522.31
2023-04-29T02:54:20.985Z,100521.53
2023-04-29T02:57:23.073Z,100513.25
2023-04-29T03:00:24.816Z,100516.81
2023-04-29T03:03:26.274Z,100519.59
2023-04-29T03:06:28.110Z,100526.72
2023-04-29T03:09:30.044Z,100521.22
2023-04-29T03:12:32.220Z,100518.75
2023-04-29T03:15:33.617Z,100521.22
2023-04-29T03:18:34.913Z,100516.00
2023-04-29T03:21:36.432Z,100519.84
2023-04-29T03:24:38.182Z,100517.66
2023-04-29T03:27:40.336Z,100517.94
2023-04-29T03:30:41.672Z,100517.94
2023-04-29T03:33:43.140Z,100510.81
2023-04-29T03:36:44.570Z,100503.38
2023-04-29T03:39:45.963Z,100510.56
2023-04-29T03:42:47.995Z,100513.56
2023-04-29T03:45:49.367Z,100511.91
2023-04-29T03:48:51.315Z,100509.16
2023-04-29T03:51:52.845Z,100512.47
2023-04-29T03:54:54.180Z,100513.03
2023-04-29T03:57:56.100Z,100506.97
2023-04-29T04:00:57.617Z,100509.72
2023-04-29T04:03:59.228Z,100521.28
2023-04-29T04:07:00.735Z,100516.31
2023-04-29T04:10:02.102Z,100512.47
2023-04-29T04:13:04.133Z,100513.56
2023-04-29T04:16:05.700Z,100516.56
2023-04-29T04:19:07.089Z,100527.31
2023-04-29T04:22:08.447Z,100524.31
2023-04-29T04:25:10.715Z,100521.28
2023-04-29T04:28:12.684Z,100523.47
2023-04-29T04:31:14.380Z,100528.44
2023-04-29T04:34:15.894Z,100527.59
2023-04-29T04:37:17.596Z,100525.41
2023-04-29T04:40:19.021Z,100527.88
2023-04-29T04:43:21.152Z,100534.19
2023-04-29T04:46:22.475Z,100533.38
2023-04-29T04:49:24.584Z,100530.63
2023-04-29T04:52:25.929Z,100531.19
2023-04-29T04:55:27.368Z,100525.94
2023-04-29T04:58:30.913Z,100521.00
2023-04-29T05:01:32.412Z,100535.03
2023-04-29T05:04:33.885Z,100536.69
2023-04-29T05:07:35.428Z,100538.06
2023-04-29T05:10:36.768Z,100533.94
2023-04-29T05:13:38.957Z,100545.25
2023-04-29T05:16:40.395Z,100541.38
2023-04-29T05:19:41.688Z,100546.63
2023-04-29T05:22:42.998Z,100543.00
2023-04-29T05:25:44.525Z,100548.25
2023-04-29T05:28:46.713Z,100541.09
2023-04-29T05:31:48.024Z,100544.69
2023-04-29T05:34:49.887Z,100547.97
2023-04-29T05:37:51.159Z,100547.97
2023-04-29T05:40:52.752Z,100560.63
2023-04-29T05:43:54.690Z,100550.72
2023-04-29T05:46:55.992Z,100556.81
2023-04-29T05:49:57.286Z,100556.78
2023-04-29T05:52:58.630Z,100564.78
2023-04-29T05:56:00.110Z,100565.88
2023-04-29T05:59:02.065Z,100557.88
2023-04-29T06:02:03.448Z,100565.06
2023-04-29T06:05:05.642Z,100567.00
2023-04-29T06:08:07.514Z,100578.53
2023-04-29T06:11:08.796Z,100582.38
2023-04-29T06:14:10.915Z,100581.34
2023-04-29T06:17:12.541Z,100579.63
2023-04-29T06:20:14.011Z,100582.69
2023-04-29T06:23:15.461Z,100582.41
2023-04-29T06:26:16.857Z,100593.69
2023-04-29T06:29:18.832Z,100595.91
2023-04-29T06:32:20.127Z,100601.16
2023-04-29T06:35:22.257Z,100600.84
2023-04-29T06:38:23.542Z,100611.34
2023-04-29T06:41:24.979Z,100615.44
2023-04-29T06:44:27.213Z,100625.91
2023-04-29T06:47:28.785Z,100625.59
2023-04-29T06:50:30.536Z,100629.19
2023-04-29T06:53:31.975Z,100633.84
2023-04-29T06:56:33.372Z,100631.66
2023-04-29T06:59:35.678Z,100647.63
2023-04-29T07:02:38.332Z,100650.34
2023-04-29T07:05:41.160Z,100646.47
2023-04-29T07:08:42.582Z,100651.44
2023-04-29T07:11:43.872Z,100648.13
2023-04-29T07:14:46.299Z,100661.34
2023-04-29T07:17:47.727Z,100658.59
2023-04-29T07:20:50.526Z,100663.00
2023-04-29T07:23:51.900Z,100665.50
2023-04-29T07:26:53.380Z,100674.03
2023-04-29T07:29:55.907Z,100680.88
2023-04-29T07:32:57.391Z,100679.00
2023-04-29T07:35:58.882Z,100685.03
2023-04-29T07:39:00.254Z,100689.72
2023-04-29T07:42:02.340Z,100699.03
2023-04-29T07:45:05.388Z,100700.97
2023-04-29T07:48:06.910Z,100711.09
2023-04-29T07:51:12.939Z,100720.50
2023-04-29T07:54:15.864Z,100726.00
2023-04-29T07:57:17.129Z,100718.75
2023-04-29T08:00:19.461Z,100729.50
2023-04-29T08:03:21.370Z,100739.44
2023-04-29T08:06:23.071Z,100739.97
2023-04-29T08:09:24.526Z,100743.56
2023-04-29T08:12:25.846Z,100757.31
2023-04-29T08:15:28.015Z,100757.31
2023-04-29T08:18:29.324Z,100765.06
2023-04-29T08:21:31.460Z,100767.84
2023-04-29T08:24:34.328Z,100770.50
2023-04-29T08:27:35.663Z,100777.34
2023-04-29T08:30:40.235Z,100786.97
2023-04-29T08:33:41.560Z,100794.94
2023-04-29T08:36:43.069Z,100793.34
2023-04-29T08:39:46.103Z,100789.75
2023-04-29T08:42:49.283Z,100806.28
2023-04-29T08:45:52.082Z,100807.38
2023-04-29T08:48:55.735Z,100806.91
2023-04-29T08:51:57.181Z,100818.38
2023-04-29T08:54:59.095Z,100818.78
2023-04-29T08:58:02.226Z,100831.06
2023-04-29T09:01:08.417Z,100838.19
2023-04-29T09:04:17.697Z,100841.03
2023-04-29T09:07:22.475Z,100847.53
2023-04-29T09:10:24.069Z,100851.41
2023-04-29T09:13:26.111Z,100856.34
2023-04-29T09:16:28.630Z,100849.94
2023-04-29T09:19:31.441Z,100872.66
2023-04-29T09:22:47.521Z,100877.72
2023-04-29T09:25:55.996Z,100884.34
2023-04-29T09:29:08.472Z,100875.88
2023-04-29T09:32:20.601Z,100893.13
2023-04-29T09:35:24.204Z,100895.31
2023-04-29T09:38:25.532Z,100905.78
2023-04-29T09:41:26.788Z,100899.47
2023-04-29T09:44:32.991Z,100902.56
2023-04-29T09:47:36.514Z,100919.56
2023-04-29T09:50:38.645Z,100918.44
2023-04-29T09:53:39.944Z,100924.00
2023-04-29T09:56:49.328Z,100930.09
2023-04-29T09:59:50.886Z,100934.47
2023-04-29T10:02:57.312Z,100935.94
2023-04-29T10:05:59.774Z,100948.34
2023-04-29T10:09:01.183Z,100944.81
2023-04-29T10:12:05.503Z,100949.03
2023-04-29T10:15:16.407Z,100950.41
2023-04-29T10:18:21.085Z,100937.13
2023-04-29T10:21:28.336Z,100948.41
2023-04-29T10:24:30.182Z,100957.97
2023-04-29T10:27:33.925Z,100958.31
2023-04-29T10:30:36.698Z,100961.91
2023-04-29T10:33:42.226Z,100972.63
2023-04-29T10:36:45.064Z,100966.44
2023-04-29T10:39:52.754Z,100980.47
2023-04-29T10:42:54.858Z,100982.56
2023-04-29T10:46:17.255Z,100982.69
2023-04-29T10:49:23.029Z,100983.47
2023-04-29T10:52:27.488Z,100984.38
2023-04-29T10:55:28.896Z,100987.97
2023-04-29T10:58:43.611Z,100983.88
2023-04-29T11:01:47.234Z,100992.25
2023-04-29T11:05:28.820Z,100995.09
2023-04-29T11:08:31.055Z,100987.94
2023-04-29T11:11:46.065Z,101000.88
2023-04-29T11:14:50.235Z,100992.31
2023-04-29T11:17:51.968Z,100993.16
2023-04-29T11:21:15.147Z,101012.47
2023-04-29T11:24:16.883Z,101015.78
2023-04-29T11:27:19.960Z,101013.00
2023-04-29T11:30:22.609Z,101014.25
2023-04-29T11:33:24.460Z,101015.66
2023-04-29T11:36:27.030Z,101020.38
2023-04-29T11:39:28.557Z,101023.22
2023-04-29T11:42:30.079Z,101035.34
2023-04-29T11:45:35.528Z,101031.41
2023-04-29T11:48:36.909Z,101039.97
2023-04-29T11:51:39.037Z,101033.72
2023-04-29T11:54:41.035Z,101047.53
2023-04-29T11:57:42.955Z,101040.28
2023-04-29T12:00:44.381Z,101040.53
2023-04-29T12:03:45.942Z,101057.69
2023-04-29T12:06:51.241Z,101054.38
2023-04-29T12:09:52.563Z,101067.66
2023-04-29T12:12:54.164Z,101071.28
2023-04-29T12:15:56.842Z,101068.25
2023-04-29T12:18:59.129Z,101070.72
2023-04-29T12:22:03.343Z,101066.06
2023-04-29T12:25:05.660Z,101079.00
2023-04-29T12:28:11.900Z,101077.38
2023-04-29T12:31:15.307Z,101081.22
2023-04-29T12:34:16.673Z,101083.72
2023-04-29T12:37:18.976Z,101087.53
2023-04-29T12:40:20.968Z,101085.84
2023-04-29T12:43:27.101Z,101083.31
2023-04-29T12:46:28.635Z,101086.38
2023-04-29T12:49:30.144Z,101088.59
2023-04-29T12:52:32.118Z,101091.25
2023-04-29T12:55:34.081Z,101088.75
2023-04-29T12:58:35.516Z,101092.06
2023-04-29T13:01:37.200Z,101093.56
2023-04-29T13:04:39.958Z,101098.00
2023-04-29T13:07:42.795Z,101096.59
2023-04-29T13:10:49.942Z,101101.59
2023-04-29T13:13:51.367Z,101095.91
2023-04-29T13:16:52.795Z,101105.53
2023-04-29T13:19:54.472Z,101110.84
2023-04-29T13:22:56.452Z,101114.59
2023-04-29T13:25:57.817Z,101112.06
2023-04-29T13:28:59.103Z,101113.56
2023-04-29T13:32:00.631Z,101118.13
2023-04-29T13:35:02.004Z,101111.88
2023-04-29T13:38:04.425Z,101123.28
2023-04-29T13:41:11.030Z,101119.19
2023-04-29T13:44:27.357Z,101124.28
2023-04-29T13:47:32.184Z,101120.47
2023-04-29T13:51:03.950Z,101126.16
2023-04-29T13:54:37.306Z,101118.72
2023-04-29T13:58:00.503Z,101114.00
2023-04-29T14:01:05.883Z,101114.03
2023-04-29T14:04:01.027Z,101124.31
2023-04-29T14:07:02.656Z,101118.97
2023-04-29T14:10:05.683Z,101124.47
2023-04-29T14:13:07.031Z,101119.88
2023-04-29T14:16:08.769Z,101124.84
2023-04-29T14:19:10.889Z,101130.84
2023-04-29T14:22:12.735Z,101131.44
2023-04-29T14:25:15.060Z,101128.50
2023-04-29T14:28:16.468Z,101138.66
2023-04-29T14:31:17.845Z,101136.63
2023-04-29T14:34:19.158Z,101141.03
2023-04-29T14:37:20.659Z,101140.13
2023-04-29T14:40:22.823Z,101137.16
2023-04-29T14:43:24.247Z,101143.94
2023-04-29T14:46:25.692Z,101141.38
2023-04-29T14:49:28.585Z,101144.72
2023-04-29T14:52:30.930Z,101141.91
2023-04-29T14:55:33.370Z,101145.13
2023-04-29T14:58:35.043Z,101140.59
2023-04-29T15:01:36.486Z,101150.72
2023-04-29T15:04:39.127Z,101144.25
2023-04-29T15:07:40.848Z,101148.09
2023-04-29T15:10:43.471Z,101157.03
2023-04-29T15:13:44.835Z,101152.34
2023-04-29T15:16:46.567Z,101149.94
2023-04-29T15:19:47.862Z,101148.81
2023-04-29T15:22:49.418Z,101155.75
2023-04-29T15:25:52.177Z,101155.47
2023-04-29T15:28:53.625Z,101156.56
2023-04-29T15:31:55.192Z,101155.75
2023-04-29T15:34:56.931Z,101158.19
2023-04-29T15:37:58.854Z,101165.75
2023-04-29T15:41:02.161Z,101163.84
2023-04-29T15:44:03.612Z,101169.66
2023-04-29T15:47:04.924Z,101172.13
2023-04-29T15:50:08.745Z,101179.88
2023-04-29T15:53:10.037Z,101177.66
2023-04-29T15:56:12.675Z,101182.66
2023-04-29T15:59:15.050Z,101177.38
2023-04-29T16:02:16.607Z,101190.66
2023-04-29T16:05:18.052Z,101197.00
2023-04-29T16:08:19.378Z,101200.34
2023-04-29T16:11:21.822Z,101199.78
2023-04-29T16:14:23.319Z,101201.44
2023-04-29T16:17:25.828Z,101197.03
2023-04-29T16:20:27.117Z,101207.25
2023-04-29T16:23:28.643Z,101208.03
2023-04-29T16:26:31.219Z,101210.22
2023-04-29T16:29:32.683Z,101209.91
2023-04-29T16:32:34.175Z,101201.03
2023-04-29T16:35:36.276Z,101209.69
2023-04-29T16:38:37.618Z,101218.22
2023-04-29T16:41:39.632Z,101220.44
2023-04-29T16:44:40.965Z,101226.56
2023-04-29T16:47:42.383Z,101226.56
2023-04-29T16:50:43.778Z,101227.66
2023-04-29T16:53:45.378Z,101232.41
2023-04-29T16:56:48.910Z,101229.59
2023-04-29T16:59:52.528Z,101228.50
2023-04-29T17:02:57.553Z,101238.19
2023-04-29T17:05:59.239Z,101243.72
2023-04-29T17:09:01.634Z,101242.88
2023-04-29T17:12:05.875Z,101246.75
2023-04-29T17:15:08.170Z,101249.50
2023-04-29T17:18:09.484Z,101252.81
2023-04-29T17:21:11.040Z,101248.16
2023-04-29T17:24:12.409Z,101256.16
2023-04-29T17:27:14.516Z,101261.97
2023-04-29T17:30:15.856Z,101274.97
2023-04-29T17:33:17.440Z,101263.38
2023-04-29T17:36:18.856Z,101277.16
2023-04-29T17:39:20.192Z,101279.38
2023-04-29T17:42:22.318Z,101279.31
2023-04-29T17:45:24.451Z,101280.97
2023-04-29T17:48:25.890Z,101285.09
2023-04-29T17:51:27.829Z,101298.06
2023-04-29T17:54:29.401Z,101299.94
2023-04-29T17:57:31.388Z,101295.75
2023-04-29T18:00:34.469Z,101299.00
2023-04-29T18:03:35.892Z,101295.63
2023-04-29T18:06:37.428Z,101298.59
2023-04-29T18:09:38.871Z,101309.63
2023-04-29T18:12:40.998Z,101313.41
2023-04-29T18:15:42.557Z,101316.06
2023-04-29T18:18:43.861Z,101306.88
2023-04-29T18:21:45.364Z,101316.22
2023-04-29T18:24:47.637Z,101326.34
2023-04-29T18:27:49.597Z,101329.28
2023-04-29T18:30:51.596Z,101328.13
2023-04-29T18:33:52.916Z,101332.97
2023-04-29T18:36:54.357Z,101338.41
2023-04-29T18:39:55.903Z,101346.66
2023-04-29T18:42:58.331Z,101350.69
2023-04-29T18:46:00.307Z,101348.72
2023-04-29T18:49:01.663Z,101353.59
2023-04-29T18:52:04.009Z,101351.31
2023-04-29T18:55:06.022Z,101366.69
2023-04-29T18:58:08.646Z,101370.72
2023-04-29T19:01:10.077Z,101364.56
2023-04-29T19:04:11.974Z,101363.69
2023-04-29T19:07:13.337Z,101376.75
2023-04-29T19:10:14.866Z,101382.16
2023-04-29T19:13:16.928Z,101395.25
2023-04-29T19:16:18.589Z,101401.78
2023-04-29T19:19:20.029Z,101400.28
2023-04-29T19:22:21.554Z,101398.78
2023-04-29T19:25:25.128Z,101403.63
2023-04-29T19:28:27.164Z,101409.81
2023-04-29T19:31:28.722Z,101414.06
2023-04-29T19:34:30.582Z,101419.72
2023-04-29T19:37:32.131Z,101419.88
2023-04-29T19:40:33.710Z,101418.47
2023-04-29T19:43:35.831Z,101419.56
2023-04-29T19:46:37.337Z,101425.63
2023-04-29T19:49:38.787Z,101428.06
2023-04-29T19:52:40.230Z,101427.97
2023-04-29T19:55:41.823Z,101426.19
2023-04-29T19:58:43.970Z,101435.03
2023-04-29T20:01:45.560Z,101434.63
2023-04-29T20:04:47.432Z,101441.00
2023-04-29T20:07:49.212Z,101440.47
2023-04-29T20:10:50.644Z,101443.47
2023-04-29T20:13:53.115Z,101443.09
2023-04-29T20:16:54.517Z,101452.91
2023-04-29T20:19:56.212Z,101454.47
2023-04-29T20:22:59.584Z,101455.19
2023-04-29T20:26:01.559Z,101458.19
2023-04-29T20:29:03.797Z,101463.25
2023-04-29T20:32:05.513Z,101463.75
2023-04-29T20:35:07.881Z,101469.47
2023-04-29T20:38:09.140Z,101475.94
2023-04-29T20:41:10.585Z,101477.13
2023-04-29T20:44:12.538Z,101490.38
2023-04-29T20:47:13.977Z,101489.66
2023-04-29T20:50:15.291Z,101491.91
2023-04-29T20:53:16.707Z,101492.66
2023-04-29T20:56:18.144Z,101495.28
2023-04-29T20:59:20.165Z,101487.16
2023-04-29T21:02:21.671Z,101493.59
2023-04-29T21:05:23.082Z,101496.34
2023-04-29T21:08:24.658Z,101505.66
2023-04-29T21:11:26.001Z,101507.44
2023-04-29T21:14:28.069Z,101506.25
2023-04-29T21:17:29.633Z,101516.16
2023-04-29T21:20:31.096Z,101512.81
2023-04-29T21:23:32.694Z,101525.94
2023-04-29T21:26:33.982Z,101531.41
2023-04-29T21:29:39.988Z,101528.44
2023-04-29T21:32:41.443Z,101530.56
2023-04-29T21:35:42.937Z,101532.34
2023-04-29T21:38:44.274Z,101539.25
2023-04-29T21:41:46.365Z,101543.31
2023-04-29T21:44:48.447Z,101541.41
2023-04-29T21:47:49.917Z,101545.94
2023-04-29T21:50:51.576Z,101551.19
2023-04-29T21:53:52.990Z,101551.53
2023-04-29T21:56:54.454Z,101555.13
2023-04-29T21:59:59.419Z,101561.41
2023-04-29T22:03:01.935Z,101559.59
2023-04-29T22:06:03.661Z,101568.19
2023-04-29T22:09:05.911Z,101575.22
2023-04-29T22:12:07.273Z,101571.13
2023-04-29T22:15:17.454Z,101578.75
2023-04-29T22:18:29.269Z,101586.16
2023-04-29T22:21:31.011Z,101583.41
2023-04-29T22:24:32.324Z,101591.03
2023-04-29T22:27:33.767Z,101602.59
2023-04-29T22:30:35.799Z,101599.72
2023-04-29T22:33:37.297Z,101602.22
2023-04-29T22:36:39.245Z,101600.88
2023-04-29T22:39:40.689Z,101600.63
2023-04-29T22:42:42.187Z,101600.41
2023-04-29T22:45:50.629Z,101609.53
2023-04-29T22:48:52.067Z,101612.13
2023-04-29T22:51:53.629Z,101624.38
2023-04-29T22:54:55.058Z,101625.47
2023-04-29T22:57:56.347Z,101622.63
2023-04-29T23:00:58.508Z,101622.41
2023-04-29T23:03:59.797Z,101624.00
2023-04-29T23:07:01.392Z,101624.38
2023-04-29T23:10:02.744Z,101634.16
2023-04-29T23:13:04.222Z,101632.06
2023-04-29T23:16:10.033Z,101635.63
2023-04-29T23:19:12.076Z,101626.41
2023-04-29T23:22:13.546Z,101629.06
2023-04-29T23:25:15.077Z,101634.75
2023-04-29T23:28:16.500Z,101643.88
2023-04-29T23:31:18.506Z,101650.00
2023-04-29T23:34:20.089Z,101645.84
2023-04-29T23:37:24.486Z,101646.06
2023-04-29T23:40:26.101Z,101646.53
2023-04-29T23:43:29.120Z,101652.66
2023-04-29T23:46:31.167Z,101654.16
2023-04-29T23:49:33.447Z,101650.00
2023-04-29T23:52:35.355Z,101653.66
2023-04-29T23:55:36.976Z,101651.41
2023-04-29T23:58:38.431Z,101652.84
